Time;durP1;ratioP1;P1;durP2;ratioP2;P2;SDS_P1;SDS_P2;PMS_P1;PMS_P2;Temp;Humidity;BMP_temperature;BMP_pressure;BME280_temperature;BME280_humidity;BME280_pressure;Samples;Min_cycle;Max_cycle;Signal;HPM_P1;HPM_P2
2023/05/02 00:00:26;;;;;;;6.15;1.90;;;18.50;62.10;;;;;;4143725;28;20057;-48
2023/05/02 00:02:49;;;;;;;5.90;2.17;;;18.50;62.20;;;;;;4128716;28;20503;-50
2023/05/02 00:05:11;;;;;;;8.15;1.88;;;18.50;62.50;;;;;;4123756;28;20545;-56
2023/05/02 00:07:35;;;;;;;2.83;1.83;;;18.40;62.80;;;;;;4143432;28;20080;-57
2023/05/02 00:09:57;;;;;;;3.28;1.88;;;18.50;63.00;;;;;;4144075;28;20453;-56
2023/05/02 00:12:20;;;;;;;5.13;2.30;;;18.50;63.10;;;;;;4143662;28;20475;-57
2023/05/02 00:14:42;;;;;;;2.60;1.80;;;18.50;63.30;;;;;;4143660;28;20045;-56
2023/05/02 00:17:04;;;;;;;4.70;1.75;;;18.50;63.30;;;;;;4138599;28;20556;-54
2023/05/02 00:19:27;;;;;;;2.05;1.52;;;18.50;63.30;;;;;;4128409;28;20058;-52
2023/05/02 00:21:49;;;;;;;4.45;1.60;;;18.50;63.30;;;;;;4144389;28;20442;-54
2023/05/02 00:24:12;;;;;;;4.13;1.60;;;18.50;63.30;;;;;;4135966;28;20053;-51
2023/05/02 00:26:34;;;;;;;5.22;1.88;;;18.60;63.40;;;;;;4141375;28;20117;-55
2023/05/02 00:28:58;;;;;;;4.13;1.90;;;18.60;63.30;;;;;;4139798;28;20065;-49
2023/05/02 00:31:20;;;;;;;4.43;1.58;;;18.60;63.50;;;;;;4141154;28;20536;-52
2023/05/02 00:33:42;;;;;;;3.45;2.00;;;18.60;63.30;;;;;;4144068;28;20042;-54
2023/05/02 00:36:12;;;;;;;4.57;2.25;;;18.70;63.10;;;;;;4144545;28;20232;-53
2023/05/02 00:38:34;;;;;;;2.58;1.80;;;18.70;62.80;;;;;;4145121;28;20049;-54
2023/05/02 00:40:57;;;;;;;3.90;1.52;;;18.70;62.50;;;;;;4137756;28;20528;-51
2023/05/02 00:43:20;;;;;;;2.88;1.98;;;18.70;62.30;;;;;;4144470;28;20038;-54
2023/05/02 00:45:43;;;;;;;2.25;1.70;;;18.70;62.10;;;;;;4143762;28;20056;-51
2023/05/02 00:48:08;;;;;;;2.53;1.58;;;18.70;61.90;;;;;;4144375;28;20041;-48
2023/05/02 00:50:32;;;;;;;3.22;1.83;;;18.70;61.70;;;;;;4143547;28;20072;-50
2023/05/02 00:52:55;;;;;;;3.53;1.80;;;18.70;62.20;;;;;;4142368;28;20033;-50
2023/05/02 00:55:18;;;;;;;2.67;1.48;;;18.70;61.50;;;;;;4142835;28;20042;-53
2023/05/02 00:57:40;;;;;;;3.70;1.80;;;18.70;61.40;;;;;;4139833;28;20096;-49
2023/05/02 01:00:03;;;;;;;2.53;1.60;;;18.70;61.30;;;;;;4143716;28;20045;-53
2023/05/02 01:02:50;;;;;;;2.92;1.70;;;18.70;61.20;;;;;;4144330;28;20137;-54
2023/05/02 01:05:21;;;;;;;2.45;1.67;;;18.70;61.10;;;;;;4144130;28;20101;-52
2023/05/02 01:08:01;;;;;;;3.30;1.80;;;18.70;61.00;;;;;;4124796;28;20046;-51
2023/05/02 01:10:37;;;;;;;2.45;1.50;;;18.80;61.00;;;;;;4134798;28;20113;-49
2023/05/02 01:13:23;;;;;;;2.20;1.50;;;18.80;60.90;;;;;;4143193;28;20045;-53
2023/05/02 01:15:47;;;;;;;2.88;1.83;;;18.80;60.90;;;;;;4143714;28;20046;-52
2023/05/02 01:18:12;;;;;;;2.35;1.75;;;18.80;60.80;;;;;;4144849;28;20228;-50
2023/05/02 01:20:40;;;;;;;2.22;1.63;;;18.80;60.70;;;;;;4138489;28;20073;-59
2023/05/02 01:23:08;;;;;;;3.08;1.80;;;18.80;60.90;;;;;;4140747;28;20187;-55
2023/05/02 01:25:52;;;;;;;6.05;2.05;;;18.80;61.60;;;;;;4140620;28;20037;-59
2023/05/02 01:28:26;;;;;;;1.98;1.75;;;18.90;61.70;;;;;;4142158;28;20121;-59
2023/05/02 01:30:50;;;;;;;2.42;1.60;;;18.90;61.70;;;;;;4142102;28;20038;-53
2023/05/02 01:33:14;;;;;;;;;;;19.00;61.70;;;;;;4142691;28;20065;-50
2023/05/02 01:35:38;;;;;;;2.25;1.50;;;19.00;61.80;;;;;;4142760;28;20366;-54
2023/05/02 01:38:02;;;;;;;4.70;1.85;;;19.10;61.70;;;;;;4134682;28;20092;-54
2023/05/02 01:40:25;;;;;;;5.05;2.15;;;19.10;61.60;;;;;;4143484;28;20642;-52
2023/05/02 01:42:50;;;;;;;8.57;2.90;;;19.20;61.80;;;;;;4130441;28;20034;-54
2023/05/02 01:45:13;;;;;;;2.38;1.80;;;19.20;61.90;;;;;;4142127;28;20033;-55
2023/05/02 01:47:37;;;;;;;2.75;1.83;;;19.20;62.10;;;;;;4132559;28;20383;-55
2023/05/02 01:50:00;;;;;;;3.83;1.93;;;19.30;62.10;;;;;;4135934;28;20547;-57
2023/05/02 01:52:24;;;;;;;4.82;1.92;;;19.30;61.90;;;;;;4140832;28;20283;-52
2023/05/02 01:54:47;;;;;;;4.47;1.70;;;19.30;61.70;;;;;;4142434;28;20034;-55
2023/05/02 01:57:11;;;;;;;6.80;2.08;;;19.30;61.70;;;;;;4143102;28;20041;-54
2023/05/02 01:59:36;;;;;;;4.20;1.70;;;19.40;61.70;;;;;;4142324;28;20528;-51
2023/05/02 02:02:00;;;;;;;3.80;1.60;;;19.40;61.80;;;;;;4142971;28;20034;-47
2023/05/02 02:04:25;;;;;;;4.40;1.90;;;19.40;61.70;;;;;;4142185;28;20167;-48
2023/05/02 02:06:53;;;;;;;2.80;1.77;;;19.50;61.70;;;;;;4142017;28;20046;-50
2023/05/02 02:09:15;;;;;;;4.18;1.80;;;19.50;62.00;;;;;;4142023;28;20117;-46
2023/05/02 02:11:46;;;;;;;5.95;2.00;;;19.60;62.20;;;;;;4142741;28;20041;-55
2023/05/02 02:14:24;;;;;;;4.10;2.45;;;19.60;61.40;;;;;;4137452;28;20038;-53
2023/05/02 02:16:47;;;;;;;3.97;1.90;;;19.60;62.20;;;;;;4143146;28;20042;-49
2023/05/02 02:19:14;;;;;;;4.70;2.28;;;19.70;61.40;;;;;;4137988;28;20068;-50
2023/05/02 02:21:37;;;;;;;5.85;2.00;;;19.70;60.80;;;;;;4137256;28;20048;-50
2023/05/02 02:24:03;;;;;;;3.47;2.15;;;19.70;60.70;;;;;;4138995;28;20501;-52
2023/05/02 02:26:25;;;;;;;4.93;2.10;;;19.70;60.90;;;;;;4127873;28;20042;-51
2023/05/02 02:28:48;;;;;;;3.08;2.00;;;19.80;60.90;;;;;;4137429;28;20045;-47
2023/05/02 02:31:10;;;;;;;2.83;2.03;;;19.70;60.40;;;;;;4138210;28;20034;-45
2023/05/02 02:33:33;;;;;;;5.35;2.13;;;19.70;59.90;;;;;;4136889;28;20038;-50
2023/05/02 02:36:06;;;;;;;3.55;2.10;;;19.70;59.80;;;;;;4141726;28;20394;-48
2023/05/02 02:38:43;;;;;;;3.03;1.60;;;19.70;59.80;;;;;;4142758;28;20137;-48
2023/05/02 02:41:32;;;;;;;5.22;2.17;;;19.70;59.90;;;;;;4141892;28;20050;-54
2023/05/02 02:44:26;;;;;;;2.50;1.45;;;19.70;59.90;;;;;;4143449;28;20111;-48
2023/05/02 02:47:15;;;;;;;2.75;1.58;;;19.70;59.80;;;;;;4143757;28;20539;-47
2023/05/02 02:50:02;;;;;;;2.95;1.67;;;19.80;59.80;;;;;;4125017;28;20046;-48
2023/05/02 02:52:36;;;;;;;1.92;1.50;;;19.80;59.70;;;;;;4140373;28;20107;-46
2023/05/02 02:55:29;;;;;;;1.98;1.80;;;19.80;59.60;;;;;;4144248;28;20041;-49
2023/05/02 02:58:04;;;;;;;2.28;1.80;;;19.90;59.70;;;;;;4130262;28;20038;-50
2023/05/02 03:00:28;;;;;;;1.67;1.50;;;19.90;59.50;;;;;;4144645;28;20042;-53
2023/05/02 03:02:53;;;;;;;2.53;1.52;;;19.90;59.40;;;;;;4146634;28;20034;-47
2023/05/02 03:05:16;;;;;;;2.83;1.70;;;20.00;59.60;;;;;;4143510;28;20061;-50
2023/05/02 03:07:39;;;;;;;2.55;1.85;;;20.00;59.80;;;;;;4145587;28;20092;-47
2023/05/02 03:10:04;;;;;;;3.20;1.77;;;20.00;60.00;;;;;;4145758;28;20045;-47
2023/05/02 03:12:27;;;;;;;4.00;1.73;;;20.10;60.10;;;;;;4145589;28;20405;-51
2023/05/02 03:14:50;;;;;;;3.85;1.77;;;20.10;60.00;;;;;;4145079;28;20033;-47
2023/05/02 03:17:13;;;;;;;2.00;1.58;;;20.20;60.10;;;;;;4140820;28;20118;-48
2023/05/02 03:19:36;;;;;;;2.55;1.90;;;20.20;60.30;;;;;;4145705;28;20045;-48
2023/05/02 03:21:58;;;;;;;2.20;1.70;;;20.20;60.20;;;;;;4124917;28;20518;-47
2023/05/02 03:24:21;;;;;;;3.00;1.80;;;20.30;60.20;;;;;;4142046;28;20048;-46
2023/05/02 03:26:43;;;;;;;2.38;1.63;;;20.30;60.30;;;;;;4141658;28;20042;-51
2023/05/02 03:29:05;;;;;;;2.15;1.38;;;20.40;60.30;;;;;;4140961;28;20064;-49
2023/05/02 03:31:28;;;;;;;2.60;1.80;;;20.40;60.10;;;;;;4144282;28;20121;-50
2023/05/02 03:33:50;;;;;;;4.43;1.70;;;20.50;60.00;;;;;;4145761;28;20045;-50
2023/05/02 03:36:13;;;;;;;2.03;1.60;;;20.60;60.10;;;;;;4142900;28;20065;-48
2023/05/02 03:38:35;;;;;;;2.72;1.60;;;20.60;59.90;;;;;;4143699;28;20129;-46
2023/05/02 03:40:57;;;;;;;2.42;1.60;;;20.70;59.90;;;;;;4140102;28;20053;-48
2023/05/02 03:43:20;;;;;;;2.10;1.60;;;20.80;59.80;;;;;;4144446;28;20033;-47
2023/05/02 03:45:42;;;;;;;2.08;1.60;;;20.80;59.80;;;;;;4142698;28;20045;-47
2023/05/02 03:48:05;;;;;;;1.75;1.40;;;20.90;59.50;;;;;;4139406;28;20093;-46
2023/05/02 03:50:27;;;;;;;1.67;1.52;;;20.90;59.20;;;;;;4144532;28;20046;-48
2023/05/02 03:52:50;;;;;;;2.22;1.40;;;21.00;59.30;;;;;;4143047;28;20617;-50
2023/05/02 03:55:12;;;;;;;3.58;1.60;;;21.00;59.30;;;;;;4141922;28;20044;-49
2023/05/02 03:57:34;;;;;;;2.08;1.52;;;21.10;59.30;;;;;;4144213;28;20037;-48
2023/05/02 03:59:57;;;;;;;2.95;2.00;;;21.20;59.30;;;;;;4141133;28;20529;-51
2023/05/02 04:02:19;;;;;;;4.85;2.17;;;21.30;58.70;;;;;;4144104;28;20034;-52
2023/05/02 04:04:42;;;;;;;3.53;1.70;;;21.30;58.90;;;;;;4141874;28;20042;-50
2023/05/02 04:07:06;;;;;;;2.70;1.70;;;21.40;58.80;;;;;;4144763;28;20038;-47
2023/05/02 04:09:29;;;;;;;5.85;1.77;;;21.50;58.70;;;;;;4127091;28;20500;-47
2023/05/02 04:11:51;;;;;;;2.47;1.40;;;21.60;58.60;;;;;;4124968;28;20040;-51
2023/05/02 04:14:14;;;;;;;2.85;1.35;;;21.70;58.60;;;;;;4143657;28;20080;-48
2023/05/02 04:16:36;;;;;;;2.70;1.60;;;21.70;58.40;;;;;;4144283;28;20092;-51
2023/05/02 04:18:59;;;;;;;4.72;2.00;;;21.80;58.40;;;;;;4124229;28;20066;-41
2023/05/02 04:21:22;;;;;;;2.72;1.30;;;21.90;58.20;;;;;;4141455;28;20133;-45
2023/05/02 04:23:44;;;;;;;2.60;1.25;;;21.90;57.20;;;;;;4143820;28;20512;-50
2023/05/02 04:26:07;;;;;;;1.95;1.40;;;21.90;57.40;;;;;;4135379;28;20041;-47
2023/05/02 04:28:29;;;;;;;1.73;1.30;;;21.90;57.50;;;;;;4142109;28;20048;-49
2023/05/02 04:30:52;;;;;;;1.75;1.30;;;22.00;57.60;;;;;;4140639;28;20049;-47
2023/05/02 04:33:14;;;;;;;1.60;1.23;;;22.10;57.70;;;;;;4137960;28;20061;-46
2023/05/02 04:35:39;;;;;;;1.77;1.35;;;22.20;57.60;;;;;;4143395;28;20049;-48
2023/05/02 04:38:02;;;;;;;1.65;1.48;;;22.20;57.50;;;;;;4140744;28;20119;-46
2023/05/02 04:40:24;;;;;;;1.50;1.33;;;22.30;57.50;;;;;;4142682;28;20073;-47
2023/05/02 04:42:47;;;;;;;2.17;1.20;;;22.40;57.50;;;;;;4138643;28;20041;-45
2023/05/02 04:45:09;;;;;;;2.30;1.20;;;22.50;57.30;;;;;;4142118;28;20104;-47
2023/05/02 04:47:32;;;;;;;1.00;0.90;;;22.60;57.20;;;;;;4134497;28;20042;-49
2023/05/02 04:49:54;;;;;;;1.75;1.23;;;22.70;57.00;;;;;;4143118;28;20040;-51
2023/05/02 04:52:17;;;;;;;1.75;1.20;;;22.80;56.80;;;;;;4142884;28;20498;-52
2023/05/02 04:54:39;;;;;;;1.85;1.23;;;22.90;57.30;;;;;;4144955;28;20040;-50
2023/05/02 04:57:05;;;;;;;2.20;1.30;;;22.90;56.50;;;;;;4144831;28;20034;-48
2023/05/02 04:59:27;;;;;;;1.65;1.20;;;22.90;56.50;;;;;;4139544;28;20522;-45
2023/05/02 05:01:50;;;;;;;2.55;1.20;;;22.90;56.50;;;;;;4141070;28;20049;-45
2023/05/02 05:04:12;;;;;;;2.35;1.23;;;22.90;56.50;;;;;;4143076;28;20482;-44
2023/05/02 05:06:35;;;;;;;1.95;1.00;;;22.90;56.70;;;;;;4138464;28;20038;-46
2023/05/02 05:08:58;;;;;;;2.03;1.40;;;22.90;56.80;;;;;;4137724;28;20045;-47
2023/05/02 05:11:21;;;;;;;1.23;1.00;;;22.90;56.80;;;;;;4128717;28;20470;-45
2023/05/02 05:13:43;;;;;;;2.17;1.10;;;22.90;56.80;;;;;;4142573;28;20045;-47
2023/05/02 05:16:06;;;;;;;1.65;1.00;;;23.00;56.70;;;;;;4139984;28;20044;-47
2023/05/02 05:18:28;;;;;;;1.75;0.90;;;23.00;56.60;;;;;;4132782;28;20034;-49
2023/05/02 05:20:51;;;;;;;2.10;1.02;;;23.10;56.60;;;;;;4127532;28;20058;-46
2023/05/02 05:23:13;;;;;;;4.22;1.10;;;23.10;56.60;;;;;;4127008;28;20093;-46
2023/05/02 05:25:35;;;;;;;1.65;1.08;;;23.10;56.60;;;;;;4142336;28;20046;-46
2023/05/02 05:27:59;;;;;;;1.38;1.10;;;23.10;56.70;;;;;;4139895;28;20026;-49
2023/05/02 05:30:21;;;;;;;;;;;23.10;56.70;;;;;;4142292;28;20037;-45
2023/05/02 05:32:44;;;;;;;1.98;1.23;;;23.00;56.80;;;;;;4142257;28;19960;-50
2023/05/02 05:35:07;;;;;;;3.05;1.20;;;23.00;56.90;;;;;;4142669;28;20140;-50
2023/05/02 05:37:29;;;;;;;3.13;1.20;;;22.90;57.00;;;;;;4139895;28;20073;-46
2023/05/02 05:39:51;;;;;;;2.25;1.00;;;22.90;57.00;;;;;;4137039;28;20704;-50
2023/05/02 05:42:14;;;;;;;2.78;1.13;;;22.90;57.20;;;;;;4140889;28;20036;-45
2023/05/02 05:44:37;;;;;;;3.10;0.80;;;22.80;56.90;;;;;;4138380;28;20046;-44
2023/05/02 05:46:59;;;;;;;2.58;1.10;;;22.80;56.50;;;;;;4137317;28;20399;-44
2023/05/02 05:49:23;;;;;;;1.48;1.08;;;22.80;55.60;;;;;;4136883;28;20038;-42
2023/05/02 05:51:46;;;;;;;1.25;0.80;;;22.70;55.40;;;;;;4138035;28;20145;-48
2023/05/02 05:54:08;;;;;;;1.35;1.08;;;22.80;55.50;;;;;;4139768;28;20095;-47
2023/05/02 05:56:31;;;;;;;2.00;0.82;;;22.70;55.40;;;;;;4138864;28;20049;-44
2023/05/02 05:58:53;;;;;;;0.90;0.82;;;22.70;55.30;;;;;;4113958;28;20078;-48
2023/05/02 06:01:16;;;;;;;2.72;1.05;;;22.70;55.20;;;;;;4140226;28;20140;-45
2023/05/02 06:03:38;;;;;;;2.13;1.17;;;22.60;55.30;;;;;;4140545;28;20030;-47
2023/05/02 06:06:01;;;;;;;3.92;1.02;;;22.60;55.50;;;;;;4140319;28;20042;-47
2023/05/02 06:08:23;;;;;;;1.95;1.15;;;22.60;55.60;;;;;;4126792;28;20045;-47
2023/05/02 06:10:46;;;;;;;2.85;1.02;;;22.50;55.70;;;;;;4140205;28;20446;-44
2023/05/02 06:13:08;;;;;;;1.80;1.25;;;22.50;56.30;;;;;;4137870;28;20038;-43
2023/05/02 06:15:36;;;;;;;2.72;0.80;;;22.40;56.00;;;;;;4142518;28;20042;-44
2023/05/02 06:17:59;;;;;;;1.92;0.77;;;22.40;56.00;;;;;;4142364;28;20038;-43
2023/05/02 06:20:21;;;;;;;1.67;0.80;;;22.40;55.90;;;;;;4129281;28;20204;-45
2023/05/02 06:22:44;;;;;;;0.70;0.70;;;22.40;55.90;;;;;;4142337;28;20471;-43
2023/05/02 06:25:07;;;;;;;2.42;0.90;;;22.40;55.90;;;;;;4136309;28;20092;-43
2023/05/02 06:27:30;;;;;;;0.73;0.70;;;22.40;56.00;;;;;;4145490;28;20081;-44
2023/05/02 06:29:53;;;;;;;1.15;0.88;;;22.40;56.10;;;;;;4142308;28;20045;-43
2023/05/02 06:32:15;;;;;;;2.13;0.70;;;22.30;56.20;;;;;;4135311;28;20379;-42
2023/05/02 06:34:38;;;;;;;3.20;1.00;;;22.30;56.10;;;;;;4119990;28;20134;-46
2023/05/02 06:37:00;;;;;;;1.73;0.73;;;22.30;56.10;;;;;;4139375;28;20465;-44
2023/05/02 06:39:23;;;;;;;1.30;0.90;;;22.30;56.10;;;;;;4139684;28;20128;-43
2023/05/02 06:41:45;;;;;;;2.42;0.90;;;22.30;56.20;;;;;;4141419;28;20048;-44
2023/05/02 06:44:07;;;;;;;1.38;0.73;;;22.30;56.20;;;;;;4140757;28;20038;-44
2023/05/02 06:46:30;;;;;;;3.53;0.95;;;22.30;56.20;;;;;;4143757;28;20068;-46
2023/05/02 06:48:53;;;;;;;1.90;0.85;;;22.30;56.20;;;;;;4144620;28;20046;-43
2023/05/02 06:51:15;;;;;;;2.05;1.10;;;22.30;56.50;;;;;;4125269;28;20042;-43
2023/05/02 06:53:38;;;;;;;2.20;0.80;;;22.30;56.40;;;;;;4143630;28;20131;-45
2023/05/02 06:56:00;;;;;;;0.98;0.77;;;22.30;56.20;;;;;;4136970;28;20042;-51
2023/05/02 06:58:23;;;;;;;1.52;0.82;;;22.30;57.00;;;;;;4144052;28;20116;-43
2023/05/02 07:00:47;;;;;;;2.53;1.15;;;22.40;56.50;;;;;;4124670;28;20419;-43
2023/05/02 07:03:10;;;;;;;3.83;1.05;;;22.30;56.50;;;;;;4142510;28;20092;-42
2023/05/02 07:05:32;;;;;;;2.35;0.95;;;22.30;56.60;;;;;;4136680;28;20103;-42
2023/05/02 07:07:55;;;;;;;2.40;0.90;;;22.30;56.60;;;;;;4140657;28;20038;-44
2023/05/02 07:10:17;;;;;;;1.95;0.90;;;22.30;56.60;;;;;;4140641;28;20038;-42
2023/05/02 07:12:40;;;;;;;3.75;1.00;;;22.30;56.70;;;;;;4140539;28;20050;-46
2023/05/02 07:15:02;;;;;;;1.58;0.82;;;22.30;56.90;;;;;;4140426;28;20117;-43
2023/05/02 07:17:25;;;;;;;3.97;1.08;;;22.30;57.00;;;;;;4133024;28;20045;-43
2023/05/02 07:19:47;;;;;;;1.85;0.70;;;22.30;56.90;;;;;;4141377;28;20136;-45
2023/05/02 07:22:10;;;;;;;1.77;0.68;;;22.20;56.80;;;;;;4140458;28;20286;-47
2023/05/02 07:24:32;;;;;;;1.42;0.70;;;22.30;56.90;;;;;;4143476;28;20048;-45
2023/05/02 07:26:54;;;;;;;3.00;0.90;;;22.20;56.90;;;;;;4138632;28;20042;-44
2023/05/02 07:29:17;;;;;;;4.20;0.98;;;22.30;56.90;;;;;;4142059;28;20387;-42
2023/05/02 07:31:39;;;;;;;2.88;1.20;;;22.20;57.20;;;;;;4141590;28;20482;-42
2023/05/02 07:34:01;;;;;;;1.77;0.80;;;22.20;57.30;;;;;;4144393;28;20395;-44
2023/05/02 07:36:24;;;;;;;5.38;1.20;;;22.20;57.30;;;;;;4127359;28;20038;-43
2023/05/02 07:38:46;;;;;;;2.65;1.10;;;22.20;57.30;;;;;;4140674;28;20373;-48
2023/05/02 07:41:09;;;;;;;2.60;1.23;;;22.20;57.50;;;;;;4138962;28;20528;-46
2023/05/02 07:43:31;;;;;;;4.75;1.13;;;22.20;57.50;;;;;;4145003;28;20041;-48
2023/05/02 07:45:54;;;;;;;2.20;1.30;;;22.20;58.30;;;;;;4141887;28;20038;-62
2023/05/02 07:48:16;;;;;;;8.70;1.42;;;22.20;58.00;;;;;;4139788;28;20474;-59
2023/05/02 07:50:39;;;;;;;2.17;1.20;;;22.20;58.00;;;;;;4144692;28;20052;-59
2023/05/02 07:53:01;;;;;;;1.95;1.08;;;22.10;58.00;;;;;;4143924;28;20473;-59
2023/05/02 07:55:26;;;;;;;5.10;1.60;;;22.20;58.00;;;;;;4143876;28;21146;-48
2023/05/02 07:57:49;;;;;;;7.45;1.58;;;22.20;58.20;;;;;;4127651;28;20042;-59
2023/05/02 08:00:12;;;;;;;19.85;2.35;;;22.20;58.40;;;;;;4134314;28;20833;-51
2023/05/02 08:02:35;;;;;;;28.13;3.28;;;22.20;58.80;;;;;;4133947;28;20033;-47
2023/05/02 08:04:58;;;;;;;11.23;3.08;;;22.10;59.00;;;;;;4135239;28;20046;-47
2023/05/02 08:07:20;;;;;;;14.60;2.13;;;22.10;59.50;;;;;;4132554;28;20125;-47
2023/05/02 08:09:43;;;;;;;12.13;2.22;;;22.10;59.40;;;;;;4132702;28;20037;-54
2023/05/02 08:12:05;;;;;;;9.60;2.03;;;22.10;59.70;;;;;;4134195;28;20049;-48
2023/05/02 08:14:28;;;;;;;8.00;2.17;;;22.10;60.10;;;;;;4135909;28;20041;-49
2023/05/02 08:16:50;;;;;;;15.75;2.72;;;22.10;60.00;;;;;;4129701;28;20398;-57
2023/05/02 08:19:13;;;;;;;11.13;3.13;;;22.10;59.90;;;;;;4135199;28;20507;-58
2023/05/02 08:21:35;;;;;;;15.30;2.38;;;22.10;59.70;;;;;;4136434;28;20115;-59
2023/05/02 08:24:01;;;;;;;7.00;2.00;;;22.10;59.60;;;;;;4137374;28;20279;-45
2023/05/02 08:26:23;;;;;;;6.85;1.88;;;22.10;59.40;;;;;;4141169;28;20034;-51
2023/05/02 08:28:46;;;;;;;7.65;1.75;;;22.10;59.40;;;;;;4136012;28;20033;-53
2023/05/02 08:31:08;;;;;;;4.80;1.98;;;22.10;59.10;;;;;;4140582;28;20045;-51
2023/05/02 08:33:31;;;;;;;4.90;1.67;;;22.00;59.10;;;;;;4143347;28;20120;-56
2023/05/02 08:35:53;;;;;;;5.93;1.40;;;22.00;59.10;;;;;;4141628;28;20041;-51
2023/05/02 08:38:16;;;;;;;3.10;1.38;;;22.00;59.10;;;;;;4143667;28;20077;-50
2023/05/02 08:40:39;;;;;;;5.03;1.60;;;22.00;59.10;;;;;;4140785;28;20058;-49
2023/05/02 08:43:02;;;;;;;6.10;2.05;;;21.90;59.00;;;;;;4136625;28;20030;-52
2023/05/02 08:45:25;;;;;;;4.20;1.40;;;21.90;59.00;;;;;;4139281;28;20091;-52
2023/05/02 08:47:48;;;;;;;2.50;1.40;;;21.90;59.00;;;;;;4138547;28;20125;-46
2023/05/02 08:50:11;;;;;;;4.55;1.73;;;21.90;58.90;;;;;;4124200;28;20470;-51
2023/05/02 08:52:35;;;;;;;19.70;2.65;;;21.90;58.80;;;;;;4139104;28;20080;-54
2023/05/02 08:54:59;;;;;;;5.35;1.90;;;21.90;58.80;;;;;;4139292;28;20567;-55
2023/05/02 08:57:22;;;;;;;8.40;1.70;;;21.80;59.10;;;;;;4123547;28;20281;-52
2023/05/02 08:59:44;;;;;;;9.77;2.55;;;21.80;59.20;;;;;;4138468;28;20050;-53
2023/05/02 09:02:22;;;;;;;8.95;1.80;;;21.80;59.20;;;;;;4138244;28;20030;-55
2023/05/02 09:04:48;;;;;;;24.08;2.45;;;21.80;59.10;;;;;;4132646;28;20033;-54
2023/05/02 09:07:11;;;;;;;4.90;2.10;;;21.70;59.00;;;;;;4137269;28;20037;-51
2023/05/02 09:09:34;;;;;;;3.60;1.73;;;21.70;59.00;;;;;;4140774;28;20143;-52
2023/05/02 09:11:57;;;;;;;2.03;1.40;;;21.70;59.00;;;;;;4135407;28;20354;-53
2023/05/02 09:14:19;;;;;;;3.67;1.77;;;21.70;59.00;;;;;;4137448;28;20280;-51
2023/05/02 09:16:42;;;;;;;3.08;1.50;;;21.70;59.10;;;;;;4140368;28;20577;-50
2023/05/02 09:19:04;;;;;;;1.98;1.52;;;21.70;59.00;;;;;;4139648;28;20434;-51
2023/05/02 09:21:36;;;;;;;1.50;1.10;;;21.60;59.00;;;;;;4131000;28;20418;-51
2023/05/02 09:23:59;;;;;;;2.63;1.20;;;21.60;58.90;;;;;;4138829;28;20034;-53
2023/05/02 09:26:31;;;;;;;1.98;1.30;;;21.60;58.90;;;;;;4142557;28;20049;-51
2023/05/02 09:28:55;;;;;;;3.22;1.30;;;21.60;58.90;;;;;;4141548;28;20818;-53
2023/05/02 09:31:20;;;;;;;2.40;1.33;;;21.60;58.90;;;;;;4124379;28;20038;-52
2023/05/02 09:33:43;;;;;;;2.47;1.50;;;21.60;58.90;;;;;;4125873;28;20045;-46
2023/05/02 09:36:07;;;;;;;1.20;1.05;;;21.50;58.80;;;;;;4142231;28;20049;-50
2023/05/02 09:38:29;;;;;;;1.75;1.17;;;21.50;58.80;;;;;;4143595;28;20076;-49
2023/05/02 09:40:55;;;;;;;1.25;1.02;;;21.50;58.80;;;;;;4123477;28;20133;-49
2023/05/02 09:43:17;;;;;;;3.53;1.50;;;21.50;58.90;;;;;;4142358;28;20049;-51
2023/05/02 09:45:40;;;;;;;1.70;1.10;;;21.50;58.80;;;;;;4132454;28;20041;-52
2023/05/02 09:48:02;;;;;;;1.55;1.13;;;21.50;58.80;;;;;;4127974;28;20084;-52
2023/05/02 09:50:38;;;;;;;1.45;1.10;;;21.40;58.80;;;;;;4140476;28;20030;-51
2023/05/02 09:53:05;;;;;;;1.77;1.17;;;21.40;58.80;;;;;;4141916;28;20070;-50
2023/05/02 09:55:27;;;;;;;0.95;0.80;;;21.40;58.80;;;;;;4140722;28;20034;-51
2023/05/02 09:57:50;;;;;;;1.70;1.27;;;21.40;58.80;;;;;;4143182;28;20050;-53
2023/05/02 10:00:16;;;;;;;1.58;1.00;;;21.40;58.80;;;;;;4144015;28;20338;-49
2023/05/02 10:02:40;;;;;;;2.60;1.10;;;21.40;58.70;;;;;;4114677;28;20046;-50
2023/05/02 10:05:07;;;;;;;1.52;1.10;;;21.30;58.70;;;;;;4129102;28;20597;-54
2023/05/02 10:07:30;;;;;;;2.08;1.20;;;21.30;58.80;;;;;;4128960;28;20165;-52
2023/05/02 10:09:57;;;;;;;1.73;0.95;;;21.30;58.70;;;;;;4140149;28;20609;-51
2023/05/02 10:12:25;;;;;;;1.00;0.85;;;21.30;58.70;;;;;;4145412;28;20034;-54
2023/05/02 10:14:55;;;;;;;1.48;1.00;;;21.30;58.70;;;;;;4141655;28;20041;-54
2023/05/02 10:17:30;;;;;;;1.35;1.20;;;21.30;58.70;;;;;;4128721;28;20521;-52
2023/05/02 10:19:59;;;;;;;1.65;1.05;;;21.20;58.70;;;;;;4137882;28;20053;-52
2023/05/02 10:22:23;;;;;;;1.55;1.17;;;21.20;58.80;;;;;;4135183;28;20430;-54
2023/05/02 10:24:49;;;;;;;1.17;0.90;;;21.20;58.80;;;;;;4137139;28;20554;-53
2023/05/02 10:27:12;;;;;;;2.25;1.10;;;21.20;58.90;;;;;;4138875;28;20045;-56
2023/05/02 10:29:35;;;;;;;1.60;1.35;;;21.20;58.90;;;;;;4138853;28;20041;-53
2023/05/02 10:32:00;;;;;;;1.60;1.10;;;21.20;58.90;;;;;;4125860;28;20046;-52
2023/05/02 10:34:23;;;;;;;1.35;1.00;;;21.10;59.00;;;;;;4135154;28;20042;-54
2023/05/02 10:36:46;;;;;;;1.27;0.90;;;21.20;59.00;;;;;;4137784;28;20030;-54
2023/05/02 10:39:08;;;;;;;1.25;1.05;;;21.10;58.90;;;;;;4137281;28;20168;-52
2023/05/02 10:41:33;;;;;;;2.97;1.30;;;21.10;59.10;;;;;;4134549;28;20132;-52
2023/05/02 10:43:57;;;;;;;1.20;1.00;;;21.10;58.80;;;;;;4133425;28;20129;-54
2023/05/02 10:46:35;;;;;;;1.20;0.90;;;21.10;58.90;;;;;;4119737;28;20038;-51
2023/05/02 10:49:02;;;;;;;2.58;0.95;;;21.10;59.10;;;;;;4134513;28;20085;-54
2023/05/02 10:51:28;;;;;;;1.23;0.93;;;21.00;58.90;;;;;;4133422;28;20058;-54
2023/05/02 10:53:51;;;;;;;1.70;0.93;;;21.00;58.90;;;;;;4136592;28;20034;-55
2023/05/02 10:56:25;;;;;;;0.93;0.82;;;21.00;58.80;;;;;;4133880;28;20048;-54
2023/05/02 10:58:52;;;;;;;2.30;1.20;;;21.00;58.90;;;;;;4137324;28;20525;-55
2023/05/02 11:01:32;;;;;;;1.40;1.02;;;21.00;58.80;;;;;;4135501;28;20132;-53
2023/05/02 11:03:59;;;;;;;2.03;0.95;;;21.00;58.90;;;;;;4130891;28;20057;-54
2023/05/02 11:06:21;;;;;;;1.63;1.15;;;21.00;58.80;;;;;;4133419;28;20030;-54
2023/05/02 11:08:44;;;;;;;1.15;1.05;;;21.00;58.70;;;;;;4132420;28;20042;-52
2023/05/02 11:11:42;;;;;;;2.03;0.93;;;21.00;58.70;;;;;;4144154;28;20045;-52
2023/05/02 11:14:04;;;;;;;1.45;1.00;;;21.00;58.80;;;;;;4138034;28;20026;-56
2023/05/02 11:16:27;;;;;;;1.35;0.88;;;20.90;58.80;;;;;;4143764;28;20401;-52
2023/05/02 11:19:00;;;;;;;1.10;1.00;;;20.90;58.60;;;;;;4141178;28;20526;-54
2023/05/02 11:21:31;;;;;;;1.67;0.93;;;20.90;58.70;;;;;;4143141;28;20078;-50
2023/05/02 11:24:31;;;;;;;1.38;0.95;;;20.90;58.60;;;;;;4129065;28;20038;-53
2023/05/02 11:27:13;;;;;;;1.30;0.80;;;20.90;58.60;;;;;;4145179;28;20480;-53
2023/05/02 11:29:57;;;;;;;1.23;0.90;;;20.90;58.60;;;;;;4144594;28;20045;-55
2023/05/02 11:32:19;;;;;;;0.95;0.80;;;20.90;58.60;;;;;;4142881;28;20589;-53
2023/05/02 11:34:43;;;;;;;2.22;1.13;;;20.90;58.70;;;;;;4142069;28;20042;-53
2023/05/02 11:37:15;;;;;;;1.08;0.98;;;20.80;58.60;;;;;;4142885;28;20041;-54
2023/05/02 11:39:37;;;;;;;1.33;0.80;;;20.80;58.50;;;;;;4142885;28;20567;-50
2023/05/02 11:42:00;;;;;;;1.38;1.00;;;20.80;58.60;;;;;;4124513;28;20038;-55
2023/05/02 11:44:22;;;;;;;0.93;0.70;;;20.80;58.60;;;;;;4143095;28;20494;-54
2023/05/02 11:46:45;;;;;;;1.05;0.95;;;20.80;58.60;;;;;;4144630;28;20034;-54
2023/05/02 11:49:08;;;;;;;0.90;0.80;;;20.80;58.50;;;;;;4128877;28;20478;-53
2023/05/02 11:51:31;;;;;;;0.90;0.63;;;20.80;58.50;;;;;;4139630;28;20072;-52
2023/05/02 11:53:53;;;;;;;1.45;0.93;;;20.70;58.40;;;;;;4139733;28;20041;-52
2023/05/02 11:56:23;;;;;;;1.90;0.88;;;20.70;58.40;;;;;;4138887;28;20069;-53
2023/05/02 11:58:46;;;;;;;1.33;0.82;;;20.70;58.50;;;;;;4142392;28;20037;-54
2023/05/02 12:01:16;;;;;;;1.48;0.75;;;20.70;58.50;;;;;;4136551;28;20050;-52
2023/05/02 12:03:38;;;;;;;0.93;0.70;;;20.70;58.50;;;;;;4142743;28;20033;-50
2023/05/02 12:06:15;;;;;;;0.90;0.70;;;20.70;58.60;;;;;;4138858;28;20398;-53
2023/05/02 12:08:39;;;;;;;1.05;0.73;;;20.70;58.50;;;;;;4123429;28;20564;-53
2023/05/02 12:11:01;;;;;;;1.33;1.00;;;20.60;58.50;;;;;;4143413;28;20081;-61
2023/05/02 12:13:25;;;;;;;7.80;1.30;;;20.60;58.60;;;;;;4141825;28;20557;-64
2023/05/02 12:15:48;;;;;;;;;;;20.60;59.00;;;;;;4144220;28;20096;-65
2023/05/02 12:18:11;;;;;;;4.68;1.33;;;20.60;59.30;;;;;;4140532;28;20008;-61
2023/05/02 12:20:34;;;;;;;1.87;1.10;;;20.60;59.50;;;;;;4142950;28;20046;-53
2023/05/02 12:22:56;;;;;;;1.90;1.45;;;20.60;59.60;;;;;;4141911;28;20810;-54
2023/05/02 12:25:19;;;;;;;6.28;1.50;;;20.60;59.60;;;;;;4144789;28;20029;-48
2023/05/02 12:27:41;;;;;;;4.05;1.23;;;20.60;59.70;;;;;;4143753;28;20042;-58
2023/05/02 12:30:04;;;;;;;2.13;1.02;;;20.60;59.60;;;;;;4140470;28;20038;-50
2023/05/02 12:32:32;;;;;;;4.70;1.23;;;20.60;59.80;;;;;;4144466;28;20050;-59
2023/05/02 12:34:55;;;;;;;3.30;1.10;;;20.70;60.00;;;;;;4143519;28;20069;-48